createdAt,value
2023-10-06T00:00:49.623Z,6.37
2023-10-06T00:03:17.202Z,6.83
2023-10-06T00:05:46.018Z,7.27
2023-10-06T00:08:17.860Z,6.90
2023-10-06T00:10:53.016Z,6.67
2023-10-06T00:13:25.160Z,6.67
2023-10-06T00:15:52.636Z,6.83
2023-10-06T00:18:21.068Z,7.03
2023-10-06T00:20:56.942Z,6.93
2023-10-06T00:23:28.754Z,7.20
2023-10-06T00:25:56.984Z,6.97
2023-10-06T00:28:27.335Z,7.43
2023-10-06T00:30:57.138Z,6.40
2023-10-06T00:33:33.432Z,6.37
2023-10-06T00:36:08.674Z,7.80
2023-10-06T00:38:38.088Z,6.73
2023-10-06T00:41:08.336Z,6.63
2023-10-06T00:43:40.622Z,7.50
2023-10-06T00:46:08.801Z,6.73
2023-10-06T00:48:41.198Z,7.07
2023-10-06T00:51:23.688Z,7.23
2023-10-06T00:53:53.947Z,7.07
2023-10-06T00:56:25.182Z,7.17
2023-10-06T00:58:53.616Z,6.63
2023-10-06T01:01:23.676Z,7.03
2023-10-06T01:04:02.462Z,7.20
2023-10-06T01:06:35.088Z,6.90
2023-10-06T01:09:18.113Z,7.20
2023-10-06T01:11:47.861Z,6.83
2023-10-06T01:14:16.573Z,6.83
2023-10-06T01:16:44.378Z,6.77
2023-10-06T01:19:34.573Z,7.10
2023-10-06T01:22:19.464Z,7.17
2023-10-06T01:24:47.352Z,7.07
2023-10-06T01:27:14.654Z,7.00
2023-10-06T01:29:43.552Z,6.67
2023-10-06T01:32:11.049Z,7.40
2023-10-06T01:34:39.715Z,7.43
2023-10-06T01:37:09.226Z,6.77
2023-10-06T01:39:37.085Z,6.30
2023-10-06T01:42:09.487Z,5.57
2023-10-06T01:44:37.200Z,6.43
2023-10-06T01:47:06.320Z,7.10
2023-10-06T01:49:37.597Z,8.07
2023-10-06T01:52:10.413Z,6.77
2023-10-06T01:54:38.041Z,6.80
2023-10-06T01:57:07.785Z,6.40
2023-10-06T01:59:35.914Z,7.67
2023-10-06T02:02:04.212Z,7.17
2023-10-06T02:04:40.635Z,6.80
2023-10-06T02:07:11.622Z,6.90
2023-10-06T02:09:41.517Z,7.07
2023-10-06T02:12:10.075Z,7.07
2023-10-06T02:14:37.877Z,10.67
2023-10-06T02:17:10.030Z,6.37
2023-10-06T02:19:38.539Z,6.13
2023-10-06T02:22:07.535Z,5.83
2023-10-06T02:24:39.780Z,7.10
2023-10-06T02:27:11.101Z,6.53
2023-10-06T02:29:39.817Z,6.27
2023-10-06T02:32:08.764Z,6.77
2023-10-06T02:34:37.630Z,6.80
2023-10-06T02:37:09.502Z,6.27
2023-10-06T02:39:39.761Z,6.43
2023-10-06T02:42:12.492Z,6.63
2023-10-06T02:44:41.948Z,6.67
2023-10-06T02:47:13.061Z,6.33
2023-10-06T02:49:51.154Z,6.80
2023-10-06T02:52:24.329Z,6.27
2023-10-06T02:54:59.225Z,6.27
2023-10-06T02:57:26.907Z,6.40
2023-10-06T02:59:58.081Z,6.70
2023-10-06T03:02:27.595Z,6.47
2023-10-06T03:05:11.734Z,6.50
2023-10-06T03:07:40.204Z,6.60
2023-10-06T03:10:09.948Z,8.17
2023-10-06T03:12:40.656Z,6.97
2023-10-06T03:15:28.664Z,6.27
2023-10-06T03:17:56.845Z,6.27
2023-10-06T03:20:28.977Z,6.03
2023-10-06T03:22:57.370Z,5.73
2023-10-06T03:25:29.022Z,5.50
2023-10-06T03:27:58.825Z,5.77
2023-10-06T03:30:29.999Z,5.50
2023-10-06T03:32:59.046Z,6.13
2023-10-06T03:35:45.985Z,5.80
2023-10-06T03:38:19.777Z,5.30
2023-10-06T03:40:53.358Z,5.80
2023-10-06T03:43:40.125Z,5.97
2023-10-06T03:46:10.068Z,6.07
2023-10-06T03:48:39.606Z,5.37
2023-10-06T03:51:07.041Z,5.60
2023-10-06T03:53:34.665Z,5.73
2023-10-06T03:56:02.148Z,5.80
2023-10-06T03:58:29.713Z,6.20
2023-10-06T04:00:59.139Z,5.17
2023-10-06T04:03:27.805Z,5.00
2023-10-06T04:05:55.287Z,5.70
2023-10-06T04:08:22.925Z,5.53
2023-10-06T04:10:58.674Z,5.20
2023-10-06T04:13:27.231Z,6.93
2023-10-06T04:15:54.902Z,9.10
2023-10-06T04:18:24.877Z,7.80
2023-10-06T04:20:54.005Z,9.60
2023-10-06T04:23:25.087Z,7.33
2023-10-06T04:25:57.472Z,9.10
2023-10-06T04:28:29.399Z,9.00
2023-10-06T04:31:02.221Z,7.50
2023-10-06T04:33:29.918Z,7.23
2023-10-06T04:35:57.487Z,8.90
2023-10-06T04:38:25.039Z,8.40
2023-10-06T04:40:52.988Z,7.90
2023-10-06T04:43:22.046Z,7.30
2023-10-06T04:45:49.447Z,6.47
2023-10-06T04:48:19.960Z,5.83
2023-10-06T04:50:47.487Z,6.30
2023-10-06T04:53:17.927Z,6.37
2023-10-06T04:55:45.333Z,6.60
2023-10-06T04:58:17.226Z,7.20
2023-10-06T05:00:50.783Z,7.03
2023-10-06T05:03:18.158Z,5.93
2023-10-06T05:05:45.560Z,6.53
2023-10-06T05:08:16.643Z,6.30
2023-10-06T05:10:44.131Z,6.20
2023-10-06T05:13:11.818Z,6.07
2023-10-06T05:15:42.536Z,6.40
2023-10-06T05:18:16.882Z,10.50
2023-10-06T05:20:45.084Z,6.53
2023-10-06T05:23:15.661Z,5.97
2023-10-06T05:25:45.827Z,6.00
2023-10-06T05:28:18.033Z,6.50
2023-10-06T05:30:46.079Z,6.43
2023-10-06T05:33:15.971Z,6.70
2023-10-06T05:35:45.064Z,7.33
2023-10-06T05:38:14.359Z,6.87
2023-10-06T05:40:43.035Z,7.27
2023-10-06T05:43:17.216Z,6.90
2023-10-06T05:45:46.837Z,7.03
2023-10-06T05:48:17.047Z,9.40
2023-10-06T05:50:45.138Z,7.17
2023-10-06T05:53:20.970Z,7.43
2023-10-06T05:55:50.849Z,8.50
2023-10-06T05:58:24.607Z,8.87
2023-10-06T06:00:52.680Z,8.67
2023-10-06T06:03:24.966Z,9.37
2023-10-06T06:05:54.460Z,8.10
2023-10-06T06:08:21.828Z,8.10
2023-10-06T06:10:49.786Z,6.80
2023-10-06T06:13:23.025Z,7.63
2023-10-06T06:15:51.166Z,6.37
2023-10-06T06:18:18.519Z,16.60
2023-10-06T06:20:47.139Z,8.80
2023-10-06T06:23:16.196Z,8.50
2023-10-06T06:25:45.718Z,8.90
2023-10-06T06:28:13.902Z,8.60
2023-10-06T06:30:41.768Z,8.80
2023-10-06T06:33:13.363Z,8.40
2023-10-06T06:35:43.310Z,7.90
2023-10-06T06:38:13.823Z,7.80
2023-10-06T06:40:42.371Z,7.93
2023-10-06T06:43:13.304Z,8.23
2023-10-06T06:45:44.202Z,8.33
2023-10-06T06:48:15.100Z,9.37
2023-10-06T06:50:43.928Z,7.70
2023-10-06T06:53:12.680Z,7.63
2023-10-06T06:55:42.916Z,10.80
2023-10-06T06:58:13.111Z,8.47
2023-10-06T07:00:41.107Z,8.27
2023-10-06T07:03:10.157Z,9.33
2023-10-06T07:05:37.861Z,9.50
2023-10-06T07:08:06.171Z,11.27
2023-10-06T07:10:39.525Z,11.37
2023-10-06T07:13:07.134Z,11.90
2023-10-06T07:15:35.092Z,13.93
2023-10-06T07:18:02.594Z,12.83
2023-10-06T07:20:31.696Z,15.47
2023-10-06T07:23:03.486Z,13.93
2023-10-06T07:25:31.051Z,11.03
2023-10-06T07:27:59.976Z,11.87
2023-10-06T07:30:30.480Z,10.07
2023-10-06T07:32:58.266Z,11.93
2023-10-06T07:35:44.621Z,10.87
2023-10-06T07:38:13.415Z,11.70
2023-10-06T07:40:43.222Z,10.83
2023-10-06T07:43:11.870Z,10.57
2023-10-06T07:45:39.500Z,11.40
2023-10-06T07:48:07.189Z,10.47
2023-10-06T07:50:35.867Z,11.10
2023-10-06T07:53:03.738Z,11.23
2023-10-06T07:55:33.063Z,12.67
2023-10-06T07:58:01.551Z,10.67
2023-10-06T08:00:31.868Z,13.07
2023-10-06T08:03:00.704Z,15.77
2023-10-06T08:05:31.010Z,14.17
2023-10-06T08:07:59.746Z,13.60
2023-10-06T08:10:31.266Z,14.67
2023-10-06T08:13:02.605Z,13.97
2023-10-06T08:15:34.484Z,12.80
2023-10-06T08:18:02.710Z,13.63
2023-10-06T08:20:32.232Z,12.07
2023-10-06T08:23:00.898Z,13.43
2023-10-06T08:25:30.050Z,15.97
2023-10-06T08:28:00.110Z,12.17
2023-10-06T08:30:27.631Z,12.97
2023-10-06T08:32:55.189Z,13.30
2023-10-06T08:35:24.842Z,15.67
2023-10-06T08:37:58.007Z,13.33
2023-10-06T08:40:25.784Z,11.40
2023-10-06T08:42:57.812Z,11.87
2023-10-06T08:45:30.128Z,13.37
2023-10-06T08:48:02.373Z,14.57
2023-10-06T08:50:35.415Z,12.17
2023-10-06T08:53:06.424Z,11.87
2023-10-06T08:55:34.306Z,12.30
2023-10-06T08:58:04.619Z,11.87
2023-10-06T09:00:36.599Z,12.10
2023-10-06T09:03:14.267Z,12.07
2023-10-06T09:05:43.706Z,10.07
2023-10-06T09:08:19.301Z,11.67
2023-10-06T09:10:51.807Z,9.13
2023-10-06T09:13:22.569Z,9.67
2023-10-06T09:15:58.429Z,8.77
2023-10-06T09:18:31.115Z,8.40
2023-10-06T09:21:17.236Z,8.00
2023-10-06T09:23:45.649Z,11.60
2023-10-06T09:26:18.289Z,9.63
2023-10-06T09:28:55.247Z,7.67
2023-10-06T09:31:37.065Z,8.53
2023-10-06T09:34:10.527Z,8.50
2023-10-06T09:39:34.956Z,7.77
2023-10-06T09:42:07.209Z,8.97
2023-10-06T09:44:37.207Z,8.93
2023-10-06T09:47:09.708Z,8.70
2023-10-06T09:49:38.779Z,9.63
2023-10-06T09:52:06.968Z,8.93
2023-10-06T09:54:36.786Z,9.67
2023-10-06T09:57:05.025Z,9.37
2023-10-06T09:59:33.971Z,9.67
2023-10-06T10:02:06.343Z,9.90
2023-10-06T10:04:34.817Z,8.90
2023-10-06T10:07:03.736Z,8.63
2023-10-06T10:09:38.661Z,9.97
2023-10-06T10:12:25.354Z,8.03
2023-10-06T10:15:17.886Z,7.93
2023-10-06T10:18:00.536Z,8.87
2023-10-06T10:20:29.695Z,8.53
2023-10-06T10:22:57.920Z,9.53
2023-10-06T10:25:26.509Z,8.33
2023-10-06T10:28:14.547Z,8.13
2023-10-06T10:30:58.814Z,9.27
2023-10-06T10:33:35.766Z,7.90
2023-10-06T10:36:16.118Z,8.40
2023-10-06T10:38:43.961Z,8.67
2023-10-06T10:41:12.723Z,7.90
2023-10-06T10:43:42.684Z,10.27
2023-10-06T10:46:10.230Z,7.83
2023-10-06T10:48:38.465Z,7.07
2023-10-06T10:51:13.261Z,7.20
2023-10-06T10:53:46.544Z,7.13
2023-10-06T10:56:26.252Z,7.53
2023-10-06T10:58:55.083Z,7.47
2023-10-06T11:01:43.351Z,8.03
2023-10-06T11:04:11.314Z,7.57
2023-10-06T11:06:39.912Z,10.97
2023-10-06T11:09:26.426Z,9.63
2023-10-06T11:12:20.366Z,8.47
2023-10-06T11:14:47.846Z,8.07
2023-10-06T11:17:21.613Z,9.03
2023-10-06T11:20:04.440Z,9.10
2023-10-06T11:22:34.126Z,8.60
2023-10-06T11:25:07.653Z,8.77
2023-10-06T11:27:35.256Z,9.70
2023-10-06T11:30:16.349Z,11.47
2023-10-06T11:32:44.337Z,7.83
2023-10-06T11:35:12.302Z,12.30
2023-10-06T11:37:40.393Z,8.47
2023-10-06T11:40:08.636Z,8.07
2023-10-06T11:42:42.276Z,7.70
2023-10-06T11:45:32.788Z,9.07
2023-10-06T11:48:00.654Z,7.93
2023-10-06T11:50:33.360Z,7.00
2023-10-06T11:53:02.283Z,6.10
2023-10-06T11:55:32.584Z,6.57
2023-10-06T11:58:01.984Z,7.13
2023-10-06T12:00:49.057Z,8.40
2023-10-06T12:03:34.168Z,7.30
2023-10-06T12:06:03.823Z,6.73
2023-10-06T12:08:31.341Z,7.03
2023-10-06T12:11:05.082Z,6.70
2023-10-06T12:13:33.243Z,7.30
2023-10-06T12:16:10.751Z,7.47
2023-10-06T12:18:38.750Z,7.80
2023-10-06T12:21:08.011Z,8.23
2023-10-06T12:23:35.706Z,7.37
2023-10-06T12:26:04.269Z,7.57
2023-10-06T12:28:33.120Z,11.27
2023-10-06T12:31:03.628Z,8.07
2023-10-06T12:33:31.412Z,9.13
2023-10-06T12:35:59.181Z,7.20
2023-10-06T12:38:29.342Z,7.23
2023-10-06T12:40:56.780Z,8.20
2023-10-06T12:43:24.629Z,8.23
2023-10-06T12:45:52.180Z,8.17
2023-10-06T12:48:21.176Z,10.27
2023-10-06T12:50:48.768Z,8.17
2023-10-06T12:53:17.439Z,7.43
2023-10-06T12:55:44.843Z,7.40
2023-10-06T12:58:13.180Z,6.60
2023-10-06T13:00:40.718Z,10.13
2023-10-06T13:03:16.547Z,7.77
2023-10-06T13:08:35.237Z,7.07
2023-10-06T13:11:05.407Z,7.37
2023-10-06T13:13:36.198Z,7.30
2023-10-06T13:16:09.504Z,14.83
2023-10-06T13:18:38.115Z,7.73
2023-10-06T13:21:09.844Z,7.90
2023-10-06T13:23:37.936Z,6.97
2023-10-06T13:26:05.982Z,8.30
2023-10-06T13:28:33.928Z,7.20
2023-10-06T13:31:01.452Z,7.37
2023-10-06T13:33:30.275Z,6.67
2023-10-06T13:35:59.695Z,7.63
2023-10-06T13:38:28.253Z,7.13
2023-10-06T13:40:57.135Z,6.83
2023-10-06T13:43:24.857Z,6.93
2023-10-06T13:45:54.491Z,8.87
2023-10-06T13:48:26.325Z,7.23
2023-10-06T13:50:58.698Z,8.13
2023-10-06T13:53:26.727Z,7.17
2023-10-06T13:55:58.324Z,8.83
2023-10-06T13:58:27.591Z,10.83
2023-10-06T14:00:58.411Z,7.00
2023-10-06T14:03:27.248Z,9.57
2023-10-06T14:05:56.892Z,8.37
2023-10-06T14:08:26.452Z,9.17
2023-10-06T14:10:54.388Z,9.53
2023-10-06T14:13:26.514Z,7.13
2023-10-06T14:16:09.736Z,6.23
2023-10-06T14:18:41.210Z,8.43
2023-10-06T14:21:11.087Z,6.30
2023-10-06T14:23:45.284Z,7.43
2023-10-06T14:26:13.333Z,7.23
2023-10-06T14:28:45.416Z,6.23
2023-10-06T14:31:35.999Z,8.30
2023-10-06T14:34:21.912Z,7.07
2023-10-06T14:36:58.341Z,6.43
2023-10-06T14:39:44.404Z,7.10
2023-10-06T14:42:30.442Z,11.40
2023-10-06T14:45:16.939Z,6.73
2023-10-06T14:47:44.587Z,9.60
2023-10-06T14:50:14.550Z,9.03
2023-10-06T14:52:42.810Z,6.70
2023-10-06T14:55:10.507Z,6.73
2023-10-06T14:57:38.398Z,6.93
2023-10-06T15:00:07.347Z,12.40
2023-10-06T15:02:34.900Z,7.47
2023-10-06T15:05:02.806Z,9.20
2023-10-06T15:07:30.255Z,7.47
2023-10-06T15:09:57.933Z,8.53
2023-10-06T15:12:26.876Z,7.03
2023-10-06T15:14:55.169Z,7.80
2023-10-06T15:17:24.005Z,6.70
2023-10-06T15:19:52.661Z,6.07
2023-10-06T15:22:21.601Z,6.10
2023-10-06T15:24:51.302Z,5.70
2023-10-06T15:27:18.693Z,6.23
2023-10-06T15:29:46.272Z,9.33
2023-10-06T15:32:13.838Z,7.37
2023-10-06T15:34:41.325Z,6.57
2023-10-06T15:37:09.321Z,7.03
2023-10-06T15:39:37.687Z,7.10
2023-10-06T15:42:05.920Z,6.67
2023-10-06T15:44:34.093Z,6.30
2023-10-06T15:47:02.806Z,7.47
2023-10-06T15:49:30.881Z,6.57
2023-10-06T15:51:58.248Z,6.17
2023-10-06T15:54:26.891Z,7.33
2023-10-06T15:56:54.439Z,7.03
2023-10-06T15:59:25.255Z,8.03
2023-10-06T16:01:55.295Z,6.33
2023-10-06T16:04:26.713Z,7.13
2023-10-06T16:06:59.786Z,5.90
2023-10-06T16:09:27.627Z,5.83
2023-10-06T16:11:55.141Z,6.50
2023-10-06T16:14:24.905Z,6.23
2023-10-06T16:16:53.286Z,6.33
2023-10-06T16:19:21.101Z,9.00
2023-10-06T16:21:50.634Z,6.27
2023-10-06T16:24:18.566Z,6.43
2023-10-06T16:26:46.260Z,6.50
2023-10-06T16:29:14.371Z,6.40
2023-10-06T16:31:42.271Z,9.57
2023-10-06T16:34:10.272Z,6.83
2023-10-06T16:36:40.243Z,6.90
2023-10-06T16:39:17.809Z,7.50
2023-10-06T16:41:46.292Z,6.17
2023-10-06T16:44:15.981Z,6.43
2023-10-06T16:46:43.801Z,8.23
2023-10-06T16:49:11.425Z,6.97
2023-10-06T16:51:40.605Z,6.97
2023-10-06T16:54:10.828Z,5.97
2023-10-06T16:56:39.828Z,7.83
2023-10-06T16:59:08.422Z,7.07
2023-10-06T17:01:36.126Z,8.00
2023-10-06T17:04:05.556Z,7.23
2023-10-06T17:06:33.794Z,8.10
2023-10-06T17:09:02.218Z,6.73
2023-10-06T17:11:30.013Z,6.33
2023-10-06T17:13:57.331Z,7.00
2023-10-06T17:16:24.744Z,7.57
2023-10-06T17:18:53.771Z,7.97
2023-10-06T17:21:21.651Z,8.10
2023-10-06T17:23:49.060Z,7.83
2023-10-06T17:26:16.767Z,8.93
2023-10-06T17:28:44.420Z,9.03
2023-10-06T17:31:16.862Z,7.93
2023-10-06T17:33:45.788Z,8.00
2023-10-06T17:36:13.214Z,8.77
2023-10-06T17:38:42.177Z,7.33
2023-10-06T17:41:14.832Z,8.20
2023-10-06T17:43:44.092Z,8.07
2023-10-06T17:46:15.707Z,8.53
2023-10-06T17:48:46.940Z,8.57
2023-10-06T17:51:16.221Z,9.90
2023-10-06T17:53:44.710Z,9.13
2023-10-06T17:56:12.220Z,7.53
2023-10-06T17:58:40.669Z,11.63
2023-10-06T18:01:08.832Z,20.80
2023-10-06T18:03:36.401Z,17.33
2023-10-06T18:06:04.485Z,12.93
2023-10-06T18:08:32.964Z,12.07
2023-10-06T18:11:00.478Z,9.17
2023-10-06T18:13:28.025Z,8.77
2023-10-06T18:15:56.131Z,8.90
2023-10-06T18:18:23.668Z,6.97
2023-10-06T18:20:51.151Z,8.00
2023-10-06T18:23:18.546Z,7.17
2023-10-06T18:25:45.883Z,6.97
2023-10-06T18:28:13.242Z,7.67
2023-10-06T18:30:48.628Z,7.10
2023-10-06T18:33:17.319Z,7.50
2023-10-06T18:35:45.659Z,8.67
2023-10-06T18:38:13.600Z,8.57
2023-10-06T18:40:50.116Z,8.43
2023-10-06T18:43:18.672Z,10.73
2023-10-06T18:45:46.733Z,10.17
2023-10-06T18:48:14.286Z,8.33
2023-10-06T18:50:42.118Z,11.07
2023-10-06T18:53:09.477Z,8.83
2023-10-06T18:55:38.360Z,7.97
2023-10-06T18:58:06.105Z,9.77
2023-10-06T19:00:33.487Z,9.70
2023-10-06T19:03:01.106Z,7.40
2023-10-06T19:05:28.546Z,7.30
2023-10-06T19:07:55.927Z,11.30
2023-10-06T19:10:23.785Z,8.03
2023-10-06T19:12:51.752Z,8.30
2023-10-06T19:15:21.910Z,7.30
2023-10-06T19:17:49.708Z,9.43
2023-10-06T19:20:21.967Z,7.77
2023-10-06T19:22:49.423Z,8.10
2023-10-06T19:25:17.862Z,8.20
2023-10-06T19:27:45.546Z,9.27
2023-10-06T19:30:12.844Z,8.43
2023-10-06T19:32:40.911Z,7.73
2023-10-06T19:35:09.208Z,7.90
2023-10-06T19:37:38.769Z,10.20
2023-10-06T19:40:10.990Z,9.17
2023-10-06T19:42:41.080Z,11.63
2023-10-06T19:45:09.062Z,7.57
2023-10-06T19:47:36.811Z,9.47
2023-10-06T19:50:13.111Z,10.90
2023-10-06T19:52:43.552Z,7.60
2023-10-06T19:55:11.295Z,7.63
2023-10-06T19:57:39.028Z,8.43
2023-10-06T20:00:13.142Z,7.83
2023-10-06T20:02:43.947Z,8.77
2023-10-06T20:05:11.677Z,8.10
2023-10-06T20:07:39.203Z,11.67
2023-10-06T20:10:09.697Z,7.80
2023-10-06T20:12:37.133Z,11.17
2023-10-06T20:15:06.954Z,11.47
2023-10-06T20:17:36.437Z,9.60
2023-10-06T20:20:04.249Z,13.83
2023-10-06T20:22:36.686Z,7.90
2023-10-06T20:25:08.025Z,8.00
2023-10-06T20:27:37.465Z,12.30
2023-10-06T20:30:07.129Z,7.70
2023-10-06T20:32:37.749Z,8.30
2023-10-06T20:35:06.769Z,8.30
2023-10-06T20:37:34.466Z,9.13
2023-10-06T20:40:03.609Z,10.23
2023-10-06T20:42:31.559Z,9.33
2023-10-06T20:44:59.000Z,8.77
2023-10-06T20:47:28.055Z,9.80
2023-10-06T20:49:55.682Z,10.10
2023-10-06T20:52:23.102Z,9.33
2023-10-06T20:54:50.883Z,8.80
2023-10-06T20:57:19.578Z,9.43
2023-10-06T20:59:47.524Z,8.73
2023-10-06T21:02:15.627Z,10.97
2023-10-06T21:04:43.027Z,16.93
2023-10-06T21:07:10.453Z,15.30
2023-10-06T21:09:37.922Z,18.17
2023-10-06T21:12:05.496Z,19.60
2023-10-06T21:14:32.874Z,15.17
2023-10-06T21:17:00.477Z,11.33
2023-10-06T21:19:27.955Z,10.37
2023-10-06T21:21:55.317Z,11.87
2023-10-06T21:24:22.752Z,9.33
2023-10-06T21:26:52.207Z,9.57
2023-10-06T21:29:20.722Z,9.30
2023-10-06T21:31:48.195Z,9.97
2023-10-06T21:34:15.536Z,9.47
2023-10-06T21:36:44.056Z,8.93
2023-10-06T21:39:14.188Z,9.10
2023-10-06T21:41:41.700Z,9.67
2023-10-06T21:44:09.217Z,9.00
2023-10-06T21:46:41.451Z,10.00
2023-10-06T21:49:09.072Z,9.80
2023-10-06T21:51:36.499Z,9.77
2023-10-06T21:54:03.972Z,10.87
2023-10-06T21:56:31.284Z,9.87
2023-10-06T21:58:58.705Z,8.73
2023-10-06T22:01:27.327Z,9.17
2023-10-06T22:03:55.523Z,11.37
2023-10-06T22:06:23.895Z,9.70
2023-10-06T22:08:52.227Z,8.97
2023-10-06T22:11:20.378Z,9.50
2023-10-06T22:13:48.512Z,10.47
2023-10-06T22:16:17.767Z,9.73
2023-10-06T22:18:47.296Z,9.03
2023-10-06T22:21:15.613Z,11.23
2023-10-06T22:23:43.310Z,9.93
2023-10-06T22:26:12.272Z,10.03
2023-10-06T22:28:40.164Z,9.33
2023-10-06T22:31:08.038Z,14.53
2023-10-06T22:33:36.354Z,11.70
2023-10-06T22:36:03.969Z,10.23
2023-10-06T22:38:32.914Z,10.13
2023-10-06T22:41:01.191Z,10.70
2023-10-06T22:43:28.749Z,10.93
2023-10-06T22:45:56.392Z,10.80
2023-10-06T22:48:23.769Z,10.57
2023-10-06T22:50:51.175Z,10.70
2023-10-06T22:53:18.986Z,10.40
2023-10-06T22:55:46.499Z,8.80
2023-10-06T22:58:14.174Z,8.73
2023-10-06T23:00:41.559Z,9.63
2023-10-06T23:03:09.028Z,9.60
2023-10-06T23:05:36.531Z,13.57
2023-10-06T23:08:04.208Z,9.57
2023-10-06T23:10:31.953Z,11.20
2023-10-06T23:13:01.803Z,9.03
2023-10-06T23:15:33.006Z,9.13
2023-10-06T23:18:00.758Z,9.73
2023-10-06T23:20:29.373Z,8.97
2023-10-06T23:23:00.628Z,10.00
2023-10-06T23:25:48.497Z,15.53
2023-10-06T23:28:16.420Z,9.00
2023-10-06T23:30:43.759Z,10.43
2023-10-06T23:33:13.908Z,8.73
2023-10-06T23:35:41.343Z,9.47
2023-10-06T23:38:12.644Z,9.07
2023-10-06T23:40:43.388Z,9.67
2023-10-06T23:43:10.946Z,8.20
2023-10-06T23:45:38.453Z,9.17
2023-10-06T23:48:11.193Z,9.97
2023-10-06T23:50:52.951Z,12.40
2023-10-06T23:53:30.703Z,11.57
2023-10-06T23:56:02.298Z,11.13
2023-10-06T23:58:34.423Z,12.10
